createdAt,value
2022-08-12T05:31:49.798Z,19.00
2022-08-12T05:54:47.390Z,19.40
2022-08-12T05:59:38.938Z,19.70
2022-08-12T06:04:33.842Z,20.00
2022-08-12T06:09:31.121Z,20.30
2022-08-12T06:14:25.018Z,20.60
2022-08-12T06:19:21.727Z,20.90
2022-08-12T06:24:15.542Z,20.80
2022-08-12T06:29:10.653Z,21.10
2022-08-12T06:35:27.088Z,21.50
2022-08-12T06:39:18.101Z,21.90
2022-08-12T06:44:20.636Z,22.10
2022-08-12T06:49:14.678Z,22.20
2022-08-12T06:54:12.227Z,22.30
2022-08-12T06:59:23.024Z,22.40
2022-08-12T07:04:35.947Z,22.40
2022-08-12T07:10:01.327Z,22.40
2022-08-12T07:14:48.789Z,22.60
2022-08-12T07:19:45.374Z,22.70
2022-08-12T07:24:39.289Z,22.70
2022-08-12T07:30:03.480Z,23.00
2022-08-12T07:34:49.951Z,23.10
2022-08-12T07:39:50.047Z,23.20
2022-08-12T07:44:53.227Z,23.20
2022-08-12T07:50:05.745Z,23.30
2022-08-12T07:55:00.942Z,23.20
2022-08-12T07:59:55.887Z,23.30
2022-08-12T08:05:00.856Z,23.20
2022-08-12T08:09:58.690Z,23.10
2022-08-12T08:14:56.200Z,23.10
2022-08-12T08:20:03.954Z,23.20
2022-08-12T08:24:58.808Z,23.60
2022-08-12T08:29:52.600Z,24.00
2022-08-12T08:34:53.688Z,24.30
2022-08-12T08:39:49.997Z,24.10
2022-08-12T08:44:44.472Z,23.70
2022-08-12T08:49:38.631Z,23.60
2022-08-12T08:54:33.693Z,23.90
2022-08-12T08:59:30.883Z,24.20
2022-08-12T09:05:12.699Z,24.40
2022-08-12T09:10:02.061Z,24.40
2022-08-12T09:14:55.077Z,24.70
2022-08-12T09:19:55.188Z,24.90
2022-08-12T09:24:51.825Z,25.00
2022-08-12T09:30:09.952Z,24.70
2022-08-12T09:35:02.897Z,24.60
2022-08-12T09:40:05.535Z,24.90
2022-08-12T09:45:24.164Z,25.30
2022-08-12T09:50:22.001Z,25.30
2022-08-12T09:55:59.432Z,25.50
2022-08-12T10:00:43.161Z,26.00
2022-08-12T10:06:20.071Z,26.40
2022-08-12T10:11:21.306Z,26.50
2022-08-12T10:16:22.057Z,27.00
2022-08-12T10:21:20.456Z,27.30
2022-08-12T10:26:39.349Z,27.40
2022-08-12T10:31:46.946Z,27.90
2022-08-12T10:36:51.935Z,28.20
2022-08-12T10:42:05.067Z,28.20
2022-08-12T10:46:59.529Z,27.90
2022-08-12T10:52:31.091Z,28.30
2022-08-12T10:57:18.505Z,28.20
2022-08-12T11:04:26.562Z,28.50
2022-08-12T11:08:34.163Z,28.40
2022-08-12T11:13:00.337Z,27.70
2022-08-12T11:17:55.034Z,27.20
2022-08-12T11:22:59.523Z,27.20
2022-08-12T11:27:53.444Z,27.90
2022-08-12T11:32:47.664Z,28.80
2022-08-12T11:37:58.957Z,29.20
2022-08-12T11:42:57.945Z,28.50
2022-08-12T11:48:08.577Z,28.50
2022-08-12T11:53:58.460Z,29.70
2022-08-12T11:59:16.205Z,30.00
2022-08-12T12:03:46.244Z,30.30
2022-08-12T12:08:43.308Z,30.10
2022-08-12T12:14:07.656Z,30.80
2022-08-12T12:18:57.325Z,31.50
2022-08-12T12:23:51.041Z,31.80
2022-08-12T12:28:54.476Z,32.10
2022-08-12T12:33:57.969Z,32.70
2022-08-12T12:38:52.854Z,32.60
2022-08-12T12:44:03.971Z,31.50
2022-08-12T12:48:58.234Z,31.30
2022-08-12T12:54:07.902Z,31.50
2022-08-12T12:59:06.276Z,31.60
2022-08-12T13:04:02.524Z,31.60
2022-08-12T13:08:57.231Z,31.10
2022-08-12T13:14:08.647Z,30.20
2022-08-12T13:19:07.846Z,29.70
2022-08-12T13:24:10.425Z,29.30
2022-08-12T13:29:04.734Z,29.20
2022-08-12T13:34:33.948Z,28.80
2022-08-12T13:39:16.078Z,29.60
2022-08-12T13:44:12.041Z,30.50
2022-08-12T13:49:07.881Z,30.00
2022-08-12T13:54:05.025Z,28.50
2022-08-12T13:59:08.728Z,27.20
2022-08-12T14:04:04.792Z,26.40
2022-08-12T14:08:58.744Z,26.00
2022-08-12T14:14:04.150Z,24.30
2022-08-12T14:19:22.821Z,22.60
2022-08-12T14:24:18.976Z,21.40
2022-08-12T14:29:37.914Z,20.70
2022-08-12T14:34:36.238Z,20.10
2022-08-12T14:39:30.239Z,19.60
2022-08-12T14:44:59.476Z,19.20
2022-08-12T14:50:37.231Z,19.30
2022-08-12T15:00:24.959Z,19.00
2022-08-12T15:06:06.636Z,18.50
2022-08-12T15:10:37.279Z,18.00
2022-08-12T15:15:34.148Z,17.80
2022-08-12T15:20:38.114Z,17.80
2022-08-12T15:25:40.342Z,18.00
2022-08-12T15:30:41.991Z,18.20
2022-08-12T15:35:50.279Z,18.60
2022-08-12T15:40:49.619Z,18.80
2022-08-12T15:45:47.495Z,18.90
2022-08-12T15:50:45.407Z,18.90
2022-08-12T15:55:45.874Z,18.80
2022-08-12T16:00:42.589Z,18.80
2022-08-12T16:06:16.959Z,18.80
2022-08-12T16:10:56.883Z,18.80
2022-08-12T16:16:01.524Z,18.40
2022-08-12T16:20:56.608Z,17.80
2022-08-12T16:26:03.018Z,17.70
2022-08-12T16:31:02.177Z,17.50
2022-08-12T16:35:56.257Z,17.50
2022-08-12T16:40:50.310Z,17.10
2022-08-12T16:46:24.100Z,16.90
2022-08-12T16:51:03.946Z,16.90
2022-08-12T16:56:03.023Z,16.90
2022-08-12T17:00:57.217Z,16.80
2022-08-12T17:05:53.620Z,16.90
2022-08-12T17:10:52.796Z,17.10
2022-08-12T17:15:56.849Z,17.20
2022-08-12T17:21:07.730Z,17.20
2022-08-12T17:26:05.618Z,17.30
2022-08-12T17:31:01.378Z,17.50
2022-08-12T17:35:58.670Z,17.50
2022-08-12T17:40:52.735Z,17.60
2022-08-12T17:45:49.477Z,17.40
2022-08-12T17:50:46.014Z,17.30
2022-08-12T17:55:47.347Z,17.00
2022-08-12T18:00:45.695Z,16.80
2022-08-12T18:05:55.550Z,16.60
2022-08-12T18:11:12.350Z,16.60
2022-08-12T18:16:27.099Z,16.70
2022-08-12T18:21:23.554Z,16.70
2022-08-12T18:26:25.046Z,16.60
2022-08-12T18:31:23.041Z,16.40
2022-08-12T18:36:22.596Z,16.10
2022-08-12T18:41:33.721Z,15.90
2022-08-12T18:46:37.921Z,15.70
2022-08-12T18:51:34.222Z,15.70
2022-08-12T18:56:41.771Z,15.70
2022-08-12T19:02:19.549Z,15.70
2022-08-12T19:06:51.671Z,15.60
2022-08-12T19:12:06.259Z,15.70
2022-08-12T19:17:04.059Z,15.60
2022-08-12T19:21:58.018Z,15.40
